createdAt,value
2023-05-16T00:00:38.269Z,9.82
2023-05-16T00:03:07.915Z,7.28
2023-05-16T00:05:38.213Z,6.82
2023-05-16T00:08:10.127Z,8.95
2023-05-16T00:10:39.799Z,9.23
2023-05-16T00:13:10.171Z,8.70
2023-05-16T00:15:40.089Z,8.75
2023-05-16T00:18:10.302Z,8.20
2023-05-16T00:20:39.775Z,7.68
2023-05-16T00:23:10.790Z,8.60
2023-05-16T00:25:41.029Z,7.10
2023-05-16T00:28:10.914Z,6.93
2023-05-16T00:30:40.751Z,7.93
2023-05-16T00:33:10.162Z,7.50
2023-05-16T00:35:39.601Z,7.32
2023-05-16T00:38:10.880Z,6.43
2023-05-16T00:40:40.789Z,7.05
2023-05-16T00:43:10.194Z,7.18
2023-05-16T00:45:39.725Z,7.53
2023-05-16T00:49:37.331Z,6.88
2023-05-16T00:52:07.799Z,7.20
2023-05-16T00:54:37.250Z,7.82
2023-05-16T00:57:08.589Z,8.60
2023-05-16T00:59:38.078Z,8.93
2023-05-16T01:02:07.781Z,8.23
2023-05-16T01:04:38.908Z,8.43
2023-05-16T01:07:08.732Z,7.75
2023-05-16T01:09:38.621Z,8.40
2023-05-16T01:12:15.444Z,9.35
2023-05-16T01:14:53.891Z,9.85
2023-05-16T01:17:32.847Z,10.27
2023-05-16T01:20:15.884Z,9.95
2023-05-16T01:23:06.950Z,9.65
2023-05-16T01:25:53.729Z,8.82
2023-05-16T01:28:26.255Z,9.20
2023-05-16T01:30:55.961Z,9.25
2023-05-16T01:33:25.488Z,9.13
2023-05-16T01:36:02.997Z,8.13
2023-05-16T01:38:41.971Z,8.65
2023-05-16T01:41:21.777Z,8.35
2023-05-16T01:44:00.973Z,8.32
2023-05-16T01:46:33.297Z,9.07
2023-05-16T01:49:17.090Z,8.77
2023-05-16T01:51:54.197Z,9.27
2023-05-16T01:54:27.532Z,8.50
2023-05-16T01:56:59.072Z,7.68
2023-05-16T01:59:31.102Z,8.25
2023-05-16T02:02:00.980Z,9.57
2023-05-16T02:04:30.561Z,8.02
2023-05-16T02:07:01.324Z,8.23
2023-05-16T02:09:30.872Z,8.45
2023-05-16T02:12:00.640Z,8.10
2023-05-16T02:14:31.414Z,8.80
2023-05-16T02:17:01.179Z,8.05
2023-05-16T02:19:30.934Z,9.43
2023-05-16T02:22:00.419Z,10.35
2023-05-16T02:24:29.811Z,10.00
2023-05-16T02:26:59.259Z,9.27
2023-05-16T02:29:30.066Z,11.50
2023-05-16T02:31:59.476Z,9.85
2023-05-16T02:34:29.004Z,10.80
2023-05-16T02:36:58.401Z,8.50
2023-05-16T02:39:27.890Z,10.48
2023-05-16T02:41:57.561Z,10.18
2023-05-16T02:44:26.996Z,10.73
2023-05-16T02:46:57.805Z,9.95
2023-05-16T02:49:27.182Z,9.52
2023-05-16T02:51:56.702Z,7.43
2023-05-16T02:54:26.319Z,8.43
2023-05-16T02:56:55.860Z,8.82
2023-05-16T02:59:25.436Z,9.25
2023-05-16T03:01:56.344Z,8.65
2023-05-16T03:04:25.827Z,8.05
2023-05-16T03:06:55.281Z,8.32
2023-05-16T03:09:24.921Z,7.50
2023-05-16T03:11:54.369Z,7.38
2023-05-16T03:14:23.713Z,7.47
2023-05-16T03:16:53.124Z,6.88
2023-05-16T03:19:24.064Z,7.72
2023-05-16T03:21:53.530Z,6.60
2023-05-16T03:24:23.250Z,6.70
2023-05-16T03:26:52.792Z,6.38
2023-05-16T03:29:22.317Z,6.43
2023-05-16T03:31:52.944Z,5.47
2023-05-16T03:34:23.829Z,5.70
2023-05-16T03:36:53.518Z,6.00
2023-05-16T03:39:23.013Z,6.00
2023-05-16T03:41:52.528Z,6.03
2023-05-16T03:44:21.797Z,6.07
2023-05-16T03:46:51.570Z,5.88
2023-05-16T03:50:39.599Z,5.68
2023-05-16T03:53:11.001Z,5.50
2023-05-16T03:55:40.434Z,7.00
2023-05-16T03:58:10.075Z,6.15
2023-05-16T04:00:39.544Z,6.95
2023-05-16T04:03:09.035Z,5.97
2023-05-16T04:05:40.070Z,7.28
2023-05-16T04:08:09.655Z,7.00
2023-05-16T04:10:39.079Z,7.20
2023-05-16T04:13:08.534Z,6.40
2023-05-16T04:15:38.089Z,6.45
2023-05-16T04:18:07.544Z,7.68
2023-05-16T04:20:38.355Z,8.02
2023-05-16T04:23:07.887Z,6.90
2023-05-16T04:25:37.728Z,8.20
2023-05-16T04:28:08.052Z,7.82
2023-05-16T04:30:37.743Z,12.25
2023-05-16T04:33:07.579Z,12.40
2023-05-16T04:35:38.601Z,11.35
2023-05-16T04:38:07.993Z,12.95
2023-05-16T04:40:37.975Z,14.80
2023-05-16T04:43:07.428Z,13.73
2023-05-16T04:45:37.915Z,12.25
2023-05-16T04:48:08.182Z,11.95
2023-05-16T04:50:39.126Z,13.20
2023-05-16T04:53:08.888Z,12.95
2023-05-16T04:55:38.326Z,13.93
2023-05-16T04:58:08.428Z,14.30
2023-05-16T05:00:38.343Z,21.38
2023-05-16T05:03:07.685Z,20.60
2023-05-16T05:05:38.640Z,19.58
2023-05-16T05:08:08.424Z,17.85
2023-05-16T05:10:37.976Z,12.60
2023-05-16T05:13:07.316Z,10.63
2023-05-16T05:15:36.783Z,5.70
2023-05-16T05:18:06.747Z,4.93
2023-05-16T05:20:36.265Z,4.38
2023-05-16T05:23:07.182Z,5.00
2023-05-16T05:25:38.545Z,3.92
2023-05-16T05:28:07.949Z,4.60
2023-05-16T05:30:37.458Z,4.65
2023-05-16T05:33:07.066Z,4.10
2023-05-16T05:35:36.463Z,4.70
2023-05-16T05:38:07.381Z,4.07
2023-05-16T05:40:36.930Z,4.15
2023-05-16T05:43:06.716Z,4.40
2023-05-16T05:45:36.192Z,4.22
2023-05-16T05:48:06.008Z,3.92
2023-05-16T05:50:35.826Z,3.90
2023-05-16T05:53:06.703Z,4.32
2023-05-16T05:55:36.352Z,3.28
2023-05-16T05:58:07.153Z,3.17
2023-05-16T06:00:37.001Z,3.00
2023-05-16T06:03:06.882Z,3.88
2023-05-16T06:05:36.366Z,4.18
2023-05-16T06:08:07.672Z,3.20
2023-05-16T06:10:37.128Z,3.60
2023-05-16T06:13:06.716Z,3.78
2023-05-16T06:15:36.270Z,3.42
2023-05-16T06:18:06.011Z,3.55
2023-05-16T06:20:35.606Z,3.47
2023-05-16T06:23:06.549Z,2.97
2023-05-16T06:25:35.983Z,3.00
2023-05-16T06:28:05.290Z,2.80
2023-05-16T06:30:35.170Z,3.10
2023-05-16T06:33:04.656Z,2.58
2023-05-16T06:35:34.150Z,3.33
2023-05-16T06:38:03.732Z,3.13
2023-05-16T06:40:34.600Z,2.90
2023-05-16T06:43:04.923Z,3.20
2023-05-16T06:45:34.437Z,3.22
2023-05-16T06:50:37.162Z,3.30
2023-05-16T06:53:07.719Z,4.30
2023-05-16T06:55:37.443Z,3.33
2023-05-16T06:58:07.166Z,3.10
2023-05-16T07:00:36.951Z,3.22
2023-05-16T07:03:07.226Z,3.15
2023-05-16T07:05:38.230Z,3.63
2023-05-16T07:08:08.237Z,3.40
2023-05-16T07:10:37.661Z,3.50
2023-05-16T07:13:07.386Z,2.90
2023-05-16T07:15:36.984Z,3.20
2023-05-16T07:18:06.776Z,2.53
2023-05-16T07:20:37.843Z,2.90
2023-05-16T07:23:07.293Z,2.53
2023-05-16T07:25:36.933Z,2.60
2023-05-16T07:28:06.879Z,2.42
2023-05-16T07:30:36.440Z,2.83
2023-05-16T07:33:06.399Z,2.50
2023-05-16T07:35:37.489Z,5.10
2023-05-16T07:38:06.871Z,5.65
2023-05-16T07:40:36.518Z,5.05
2023-05-16T07:43:06.198Z,5.07
2023-05-16T07:45:35.705Z,5.20
2023-05-16T07:48:06.189Z,3.67
2023-05-16T07:50:38.095Z,2.80
2023-05-16T07:53:08.124Z,2.78
2023-05-16T07:55:37.592Z,2.40
2023-05-16T07:58:07.124Z,2.58
2023-05-16T08:00:36.629Z,2.70
2023-05-16T08:03:06.975Z,1.92
2023-05-16T08:05:37.999Z,2.53
2023-05-16T08:08:08.045Z,2.60
2023-05-16T08:10:37.618Z,2.60
2023-05-16T08:13:07.195Z,2.03
2023-05-16T08:15:37.344Z,2.10
2023-05-16T08:18:07.925Z,2.08
2023-05-16T08:20:38.962Z,1.58
2023-05-16T08:23:08.501Z,1.63
2023-05-16T08:25:37.949Z,1.70
2023-05-16T08:28:07.414Z,1.88
2023-05-16T08:30:36.965Z,2.28
2023-05-16T08:33:07.466Z,1.98
2023-05-16T08:35:38.521Z,1.67
2023-05-16T08:38:08.015Z,1.88
2023-05-16T08:40:37.748Z,1.58
2023-05-16T08:43:07.589Z,1.92
2023-05-16T08:45:37.646Z,1.88
2023-05-16T08:48:10.252Z,2.38
2023-05-16T08:50:43.199Z,2.10
2023-05-16T08:53:19.375Z,2.35
2023-05-16T08:55:50.309Z,2.38
2023-05-16T08:58:20.516Z,3.15
2023-05-16T09:00:51.061Z,2.75
2023-05-16T09:03:21.737Z,2.95
2023-05-16T09:05:52.907Z,3.05
2023-05-16T09:08:22.373Z,2.78
2023-05-16T09:10:51.974Z,2.67
2023-05-16T09:13:21.483Z,2.92
2023-05-16T09:16:12.572Z,2.97
2023-05-16T09:18:46.187Z,2.60
2023-05-16T09:21:17.427Z,2.50
2023-05-16T09:23:46.832Z,2.75
2023-05-16T09:26:16.403Z,2.75
2023-05-16T09:28:46.187Z,2.53
2023-05-16T09:31:26.951Z,2.85
2023-05-16T09:33:58.996Z,2.42
2023-05-16T09:36:30.031Z,2.08
2023-05-16T09:38:59.586Z,2.47
2023-05-16T09:41:29.236Z,2.50
2023-05-16T09:43:58.870Z,2.03
2023-05-16T09:46:29.296Z,1.80
2023-05-16T09:50:39.179Z,1.63
2023-05-16T09:53:08.869Z,1.20
2023-05-16T09:55:38.423Z,1.42
2023-05-16T09:58:07.844Z,1.40
2023-05-16T10:00:37.248Z,1.23
2023-05-16T10:03:06.777Z,1.33
2023-05-16T10:05:39.071Z,1.25
2023-05-16T10:10:41.144Z,1.55
2023-05-16T10:13:13.484Z,1.40
2023-05-16T10:15:43.728Z,1.30
2023-05-16T10:18:15.004Z,1.52
2023-05-16T10:20:49.457Z,1.17
2023-05-16T10:23:21.420Z,1.50
2023-05-16T10:25:52.281Z,1.67
2023-05-16T10:28:21.821Z,1.50
2023-05-16T10:30:51.835Z,1.30
2023-05-16T10:33:22.180Z,1.50
2023-05-16T10:35:53.579Z,1.10
2023-05-16T10:38:24.963Z,0.90
2023-05-16T10:40:54.904Z,1.17
2023-05-16T10:43:29.028Z,1.45
2023-05-16T10:45:59.375Z,1.48
2023-05-16T10:48:34.117Z,0.93
2023-05-16T10:51:05.988Z,1.15
2023-05-16T10:53:37.348Z,1.20
2023-05-16T10:56:12.989Z,1.03
2023-05-16T10:58:49.077Z,1.55
2023-05-16T11:01:24.767Z,1.80
2023-05-16T11:04:11.960Z,2.55
2023-05-16T11:06:54.003Z,1.25
2023-05-16T11:09:28.668Z,1.23
2023-05-16T11:12:08.312Z,1.98
2023-05-16T11:14:42.717Z,1.40
2023-05-16T11:17:15.186Z,1.40
2023-05-16T11:19:47.303Z,1.90
2023-05-16T11:22:27.221Z,1.67
2023-05-16T11:25:00.995Z,1.75
2023-05-16T11:27:32.748Z,1.70
2023-05-16T11:30:14.287Z,2.30
2023-05-16T11:32:46.830Z,1.90
2023-05-16T11:35:18.596Z,2.35
2023-05-16T11:37:50.819Z,2.80
2023-05-16T11:42:50.670Z,2.60
2023-05-16T11:45:22.732Z,2.03
2023-05-16T11:47:52.334Z,2.10
2023-05-16T11:50:23.805Z,2.35
2023-05-16T11:52:57.787Z,1.60
2023-05-16T11:55:41.164Z,1.48
2023-05-16T11:58:12.522Z,2.17
2023-05-16T12:00:50.852Z,1.70
2023-05-16T12:03:24.407Z,2.05
2023-05-16T12:05:55.106Z,1.90
2023-05-16T12:08:26.325Z,1.98
2023-05-16T12:10:56.498Z,2.13
2023-05-16T12:13:27.574Z,1.45
2023-05-16T12:15:57.321Z,2.20
2023-05-16T12:18:27.333Z,1.98
2023-05-16T12:20:57.134Z,1.65
2023-05-16T12:23:31.428Z,1.73
2023-05-16T12:26:01.892Z,2.00
2023-05-16T12:28:35.882Z,2.15
2023-05-16T12:31:05.755Z,2.63
2023-05-16T12:33:40.293Z,2.40
2023-05-16T12:36:16.827Z,2.53
2023-05-16T12:38:51.041Z,1.88
2023-05-16T12:41:21.837Z,2.53
2023-05-16T12:43:51.739Z,2.33
2023-05-16T12:46:22.814Z,2.20
2023-05-16T12:50:37.117Z,2.03
2023-05-16T12:53:06.999Z,2.58
2023-05-16T12:55:36.742Z,2.20
2023-05-16T12:58:06.285Z,2.35
2023-05-16T13:00:36.801Z,2.40
2023-05-16T13:03:06.648Z,2.15
2023-05-16T13:05:37.965Z,3.42
2023-05-16T13:08:08.043Z,2.70
2023-05-16T13:10:37.522Z,2.30
2023-05-16T13:13:07.027Z,2.28
2023-05-16T13:15:36.876Z,2.72
2023-05-16T13:18:06.564Z,2.85
2023-05-16T13:20:39.240Z,2.97
2023-05-16T13:23:09.066Z,2.92
2023-05-16T13:25:38.604Z,2.53
2023-05-16T13:28:08.330Z,2.42
2023-05-16T13:30:37.912Z,2.58
2023-05-16T13:33:07.522Z,2.45
2023-05-16T13:35:38.653Z,2.55
2023-05-16T13:38:08.105Z,2.20
2023-05-16T13:40:38.340Z,2.30
2023-05-16T13:43:07.861Z,2.30
2023-05-16T13:45:37.776Z,2.40
2023-05-16T13:48:08.590Z,3.17
2023-05-16T13:50:44.253Z,2.30
2023-05-16T13:53:14.297Z,2.35
2023-05-16T13:55:43.969Z,2.65
2023-05-16T13:58:13.547Z,2.35
2023-05-16T14:00:46.394Z,2.17
2023-05-16T14:03:16.212Z,3.05
2023-05-16T14:05:47.483Z,3.08
2023-05-16T14:08:16.851Z,2.05
2023-05-16T14:10:46.385Z,2.65
2023-05-16T14:13:15.939Z,2.05
2023-05-16T14:15:45.712Z,1.63
2023-05-16T14:18:15.426Z,2.47
2023-05-16T14:20:46.322Z,2.28
2023-05-16T14:23:15.745Z,2.17
2023-05-16T14:25:45.152Z,2.30
2023-05-16T14:28:17.140Z,1.95
2023-05-16T14:30:48.036Z,2.63
2023-05-16T14:33:17.746Z,2.47
2023-05-16T14:35:50.314Z,3.17
2023-05-16T14:38:20.006Z,2.50
2023-05-16T14:40:49.531Z,2.30
2023-05-16T14:43:19.088Z,2.22
2023-05-16T14:45:48.650Z,3.38
2023-05-16T14:48:18.373Z,2.70
2023-05-16T14:50:49.335Z,2.75
2023-05-16T14:53:18.949Z,3.20
2023-05-16T14:55:49.054Z,3.13
2023-05-16T14:58:18.667Z,3.28
2023-05-16T15:00:48.207Z,2.80
2023-05-16T15:03:19.427Z,3.40
2023-05-16T15:05:50.661Z,4.07
2023-05-16T15:08:19.951Z,7.38
2023-05-16T15:10:49.451Z,6.45
2023-05-16T15:13:19.704Z,22.88
2023-05-16T15:15:49.365Z,33.28
2023-05-16T15:18:18.955Z,9.90
2023-05-16T15:20:49.884Z,3.42
2023-05-16T15:23:19.465Z,4.05
2023-05-16T15:25:49.520Z,5.55
2023-05-16T15:28:21.788Z,6.32
2023-05-16T15:30:53.264Z,9.27
2023-05-16T15:33:22.878Z,16.10
2023-05-16T15:35:53.903Z,5.78
2023-05-16T15:38:23.464Z,4.55
2023-05-16T15:41:05.121Z,2.85
2023-05-16T15:43:42.460Z,3.35
2023-05-16T15:46:12.274Z,4.88
2023-05-16T15:50:37.409Z,4.55
2023-05-16T15:53:07.247Z,3.70
2023-05-16T15:55:37.731Z,3.28
2023-05-16T15:58:07.164Z,4.40
2023-05-16T16:00:36.595Z,5.55
2023-05-16T16:03:06.191Z,3.70
2023-05-16T16:05:37.205Z,5.15
2023-05-16T16:08:07.195Z,31.10
2023-05-16T16:10:36.615Z,8.20
2023-05-16T16:13:07.096Z,8.18
2023-05-16T16:15:37.139Z,5.35
2023-05-16T16:18:07.201Z,10.07
2023-05-16T16:20:38.620Z,15.40
2023-05-16T16:23:08.391Z,5.13
2023-05-16T16:25:37.946Z,5.55
2023-05-16T16:28:07.908Z,6.43
2023-05-16T16:30:37.364Z,4.93
2023-05-16T16:33:07.011Z,5.53
2023-05-16T16:35:38.205Z,4.30
2023-05-16T16:38:07.618Z,5.30
2023-05-16T16:40:37.436Z,5.55
2023-05-16T16:43:07.947Z,5.43
2023-05-16T16:45:37.792Z,7.07
2023-05-16T16:48:09.402Z,5.15
2023-05-16T16:50:41.629Z,5.18
2023-05-16T16:53:11.644Z,5.65
2023-05-16T16:55:41.253Z,5.82
2023-05-16T16:58:10.724Z,6.00
2023-05-16T17:00:40.262Z,5.50
2023-05-16T17:03:10.216Z,6.40
2023-05-16T17:05:42.720Z,5.88
2023-05-16T17:08:12.365Z,5.38
2023-05-16T17:10:41.969Z,5.00
2023-05-16T17:13:14.354Z,4.55
2023-05-16T17:15:44.432Z,5.20
2023-05-16T17:18:14.809Z,4.90
2023-05-16T17:20:45.777Z,5.72
2023-05-16T17:23:15.101Z,6.05
2023-05-16T17:25:45.500Z,4.88
2023-05-16T17:28:15.286Z,5.90
2023-05-16T17:30:44.788Z,4.70
2023-05-16T17:33:14.350Z,5.10
2023-05-16T17:35:45.379Z,5.28
2023-05-16T17:38:15.382Z,6.88
2023-05-16T17:40:44.892Z,6.20
2023-05-16T17:43:14.252Z,7.93
2023-05-16T17:45:43.804Z,8.68
2023-05-16T17:48:13.416Z,21.48
2023-05-16T17:50:44.850Z,13.15
2023-05-16T17:53:14.665Z,9.00
2023-05-16T17:55:44.214Z,9.43
2023-05-16T17:58:13.607Z,8.88
2023-05-16T18:00:43.869Z,8.35
2023-05-16T18:03:13.626Z,7.03
2023-05-16T18:05:44.685Z,6.60
2023-05-16T18:08:14.305Z,6.43
2023-05-16T18:13:19.913Z,5.60
2023-05-16T18:15:49.599Z,6.75
2023-05-16T18:18:20.177Z,6.47
2023-05-16T18:20:52.948Z,4.88
2023-05-16T18:23:22.457Z,4.35
2023-05-16T18:25:51.967Z,4.13
2023-05-16T18:28:21.886Z,4.32
2023-05-16T18:30:51.499Z,4.28
2023-05-16T18:33:22.046Z,3.88
2023-05-16T18:35:53.203Z,4.70
2023-05-16T18:38:32.022Z,4.85
2023-05-16T18:41:02.665Z,3.95
2023-05-16T18:43:35.430Z,6.75
2023-05-16T18:46:05.310Z,4.60
2023-05-16T18:50:37.101Z,5.97
2023-05-16T18:53:06.524Z,6.40
2023-05-16T18:55:36.021Z,4.97
2023-05-16T18:58:05.786Z,3.78
2023-05-16T19:00:35.847Z,4.20
2023-05-16T19:03:05.552Z,3.88
2023-05-16T19:05:36.986Z,4.10
2023-05-16T19:08:07.305Z,4.13
2023-05-16T19:10:38.618Z,4.80
2023-05-16T19:13:09.091Z,4.43
2023-05-16T19:15:39.417Z,4.00
2023-05-16T19:18:09.116Z,3.67
2023-05-16T19:20:40.060Z,10.45
2023-05-16T19:23:09.502Z,6.43
2023-05-16T19:25:39.095Z,6.03
2023-05-16T19:28:08.688Z,8.80
2023-05-16T19:30:39.417Z,6.13
2023-05-16T19:33:09.393Z,4.18
2023-05-16T19:35:40.486Z,3.42
2023-05-16T19:38:10.165Z,3.42
2023-05-16T19:40:39.824Z,3.35
2023-05-16T19:43:09.391Z,2.83
2023-05-16T19:45:38.896Z,3.67
2023-05-16T19:48:09.674Z,2.58
2023-05-16T19:50:40.902Z,2.95
2023-05-16T19:53:10.491Z,2.88
2023-05-16T19:55:40.415Z,2.75
2023-05-16T19:58:09.912Z,2.70
2023-05-16T20:00:39.465Z,2.80
2023-05-16T20:03:09.030Z,2.92
2023-05-16T20:05:40.037Z,2.65
2023-05-16T20:08:09.726Z,3.15
2023-05-16T20:10:39.292Z,2.80
2023-05-16T20:13:08.852Z,3.08
2023-05-16T20:15:38.504Z,6.82
2023-05-16T20:18:08.283Z,4.90
2023-05-16T20:20:39.381Z,3.72
2023-05-16T20:23:09.131Z,3.78
2023-05-16T20:25:38.666Z,2.80
2023-05-16T20:28:08.094Z,2.80
2023-05-16T20:30:37.514Z,2.08
2023-05-16T20:33:07.237Z,2.13
2023-05-16T20:35:36.988Z,2.13
2023-05-16T20:38:08.291Z,1.92
2023-05-16T20:40:37.736Z,1.90
2023-05-16T20:43:07.362Z,1.63
2023-05-16T20:45:36.887Z,1.10
2023-05-16T20:48:06.532Z,0.77
2023-05-16T20:50:36.663Z,0.90
2023-05-16T20:53:07.671Z,1.33
2023-05-16T20:55:39.583Z,1.58
2023-05-16T20:58:09.277Z,1.55
2023-05-16T21:00:39.254Z,1.50
2023-05-16T21:03:09.246Z,1.58
2023-05-16T21:05:39.483Z,1.77
2023-05-16T21:08:10.676Z,2.22
2023-05-16T21:10:40.385Z,1.77
2023-05-16T21:13:09.977Z,1.63
2023-05-16T21:15:40.042Z,1.73
2023-05-16T21:18:09.831Z,2.13
2023-05-16T21:20:39.477Z,2.47
2023-05-16T21:23:10.483Z,2.80
2023-05-16T21:25:41.238Z,1.77
2023-05-16T21:28:10.698Z,2.35
2023-05-16T21:30:40.245Z,2.65
2023-05-16T21:33:09.735Z,2.60
2023-05-16T21:35:39.529Z,2.70
2023-05-16T21:38:10.428Z,2.97
2023-05-16T21:40:39.864Z,2.95
2023-05-16T21:43:09.363Z,2.78
2023-05-16T21:45:40.376Z,3.08
2023-05-16T21:50:36.588Z,3.33
2023-05-16T21:53:06.382Z,3.33
2023-05-16T21:55:35.820Z,2.88
2023-05-16T21:58:05.395Z,3.45
2023-05-16T22:00:34.848Z,3.30
2023-05-16T22:03:04.378Z,3.25
2023-05-16T22:05:35.510Z,3.03
2023-05-16T22:08:05.290Z,2.97
2023-05-16T22:10:34.681Z,3.30
2023-05-16T22:13:04.346Z,2.90
2023-05-16T22:15:33.785Z,2.78
2023-05-16T22:18:03.493Z,2.55
2023-05-16T22:20:34.532Z,3.05
2023-05-16T22:23:03.954Z,2.33
2023-05-16T22:25:33.389Z,2.65
2023-05-16T22:28:02.920Z,3.20
2023-05-16T22:30:32.430Z,2.83
2023-05-16T22:33:03.892Z,3.05
2023-05-16T22:35:35.031Z,3.08
2023-05-16T22:38:04.413Z,3.00
2023-05-16T22:40:33.774Z,2.42
2023-05-16T22:43:03.221Z,4.18
2023-05-16T22:45:32.831Z,4.00
2023-05-16T22:48:02.453Z,4.13
2023-05-16T22:50:32.102Z,5.00
2023-05-16T22:53:02.845Z,5.40
2023-05-16T22:55:32.227Z,4.18
2023-05-16T22:58:01.709Z,4.03
2023-05-16T23:00:31.355Z,3.70
2023-05-16T23:03:01.181Z,3.60
2023-05-16T23:05:30.873Z,2.78
2023-05-16T23:08:02.765Z,3.20
2023-05-16T23:10:32.357Z,2.60
2023-05-16T23:13:02.033Z,2.50
2023-05-16T23:15:31.635Z,2.42
2023-05-16T23:18:01.392Z,2.00
2023-05-16T23:20:30.983Z,2.40
2023-05-16T23:23:01.855Z,2.22
2023-05-16T23:25:31.774Z,2.00
2023-05-16T23:28:01.325Z,1.92
2023-05-16T23:30:30.911Z,1.80
2023-05-16T23:33:00.547Z,1.98
2023-05-16T23:35:30.136Z,2.15
2023-05-16T23:38:00.255Z,1.48
2023-05-16T23:40:31.327Z,1.60
2023-05-16T23:43:00.993Z,1.80
2023-05-16T23:45:30.776Z,1.60
2023-05-16T23:48:00.408Z,1.95
2023-05-16T23:50:29.937Z,2.00
2023-05-16T23:52:59.350Z,1.92
2023-05-16T23:55:30.348Z,1.20
2023-05-16T23:57:59.787Z,2.20
